createdAt,value
2019-04-10T00:00:45.923Z,68.95
2019-04-10T00:03:26.511Z,66.30
2019-04-10T00:05:46.367Z,72.22
2019-04-10T00:08:15.851Z,74.37
2019-04-10T00:10:45.840Z,87.57
2019-04-10T00:13:15.396Z,76.60
2019-04-10T00:15:44.783Z,72.27
2019-04-10T00:18:14.483Z,65.15
2019-04-10T00:20:44.801Z,63.17
2019-04-10T00:23:15.170Z,66.35
2019-04-10T00:25:45.330Z,55.90
2019-04-10T00:28:15.000Z,63.23
2019-04-10T00:30:45.070Z,64.27
2019-04-10T00:33:14.572Z,53.35
2019-04-10T00:35:44.012Z,62.30
2019-04-10T00:38:13.669Z,63.17
2019-04-10T00:40:43.717Z,56.02
2019-04-10T00:43:13.321Z,61.28
2019-04-10T00:45:43.887Z,58.20
2019-04-10T00:48:13.518Z,52.43
2019-04-10T00:50:42.948Z,53.40
2019-04-10T00:53:12.760Z,55.70
2019-04-10T00:55:42.309Z,53.65
2019-04-10T00:58:12.128Z,55.60
2019-04-10T01:00:41.618Z,54.38
2019-04-10T01:03:13.449Z,48.95
2019-04-10T01:05:43.743Z,50.43
2019-04-10T01:08:13.189Z,52.10
2019-04-10T01:10:42.607Z,50.83
2019-04-10T01:13:12.401Z,45.48
2019-04-10T01:15:42.709Z,51.95
2019-04-10T01:18:13.046Z,51.45
2019-04-10T01:20:42.522Z,51.25
2019-04-10T01:23:11.986Z,47.70
2019-04-10T01:25:41.381Z,48.42
2019-04-10T01:28:10.777Z,48.85
2019-04-10T01:30:40.366Z,45.80
2019-04-10T01:33:09.929Z,44.67
2019-04-10T01:35:40.477Z,48.48
2019-04-10T01:38:10.005Z,39.27
2019-04-10T01:40:39.465Z,43.85
2019-04-10T01:43:13.387Z,38.88
2019-04-10T01:45:40.024Z,47.10
2019-04-10T01:48:10.055Z,39.33
2019-04-10T01:50:39.586Z,39.15
2019-04-10T01:53:09.163Z,48.73
2019-04-10T01:55:38.992Z,39.70
2019-04-10T01:58:12.817Z,41.85
2019-04-10T02:01:32.566Z,39.70
2019-04-10T02:04:02.636Z,33.88
2019-04-10T02:06:32.174Z,39.80
2019-04-10T02:09:02.561Z,37.63
2019-04-10T02:11:32.262Z,41.30
2019-04-10T02:14:02.301Z,29.37
2019-04-10T02:16:32.590Z,36.03
2019-04-10T02:19:02.141Z,34.18
2019-04-10T02:21:31.789Z,41.45
2019-04-10T02:24:01.342Z,34.40
2019-04-10T02:26:31.760Z,38.33
2019-04-10T02:29:01.723Z,32.98
2019-04-10T02:31:32.012Z,33.90
2019-04-10T02:34:01.783Z,31.57
2019-04-10T02:36:31.655Z,30.95
2019-04-10T02:39:12.235Z,31.93
2019-04-10T02:41:32.525Z,35.60
2019-04-10T02:44:04.840Z,29.95
2019-04-10T02:46:34.462Z,34.88
2019-04-10T02:49:04.318Z,30.95
2019-04-10T02:51:35.280Z,29.15
2019-04-10T02:54:05.700Z,35.13
2019-04-10T02:56:36.633Z,33.75
2019-04-10T02:59:07.336Z,29.20
2019-04-10T03:01:37.952Z,33.40
2019-04-10T03:04:08.959Z,33.67
2019-04-10T03:06:39.580Z,29.20
2019-04-10T03:09:28.215Z,37.08
2019-04-10T03:11:41.950Z,33.53
2019-04-10T03:14:12.506Z,29.10
2019-04-10T03:16:42.075Z,31.15
2019-04-10T03:19:11.662Z,30.12
2019-04-10T03:21:41.199Z,68.40
2019-04-10T03:24:11.763Z,33.28
2019-04-10T03:26:41.535Z,27.05
2019-04-10T03:29:11.603Z,32.28
2019-04-10T03:31:41.589Z,33.02
2019-04-10T03:34:21.825Z,48.33
2019-04-10T03:36:50.413Z,28.32
2019-04-10T03:39:19.850Z,33.02
2019-04-10T03:41:50.480Z,29.05
2019-04-10T03:44:20.735Z,33.02
2019-04-10T03:46:51.184Z,31.50
2019-04-10T03:49:22.099Z,29.42
2019-04-10T03:51:52.567Z,30.75
2019-04-10T03:54:22.916Z,35.90
2019-04-10T03:56:52.437Z,24.82
2019-04-10T03:59:22.408Z,29.65
2019-04-10T04:01:51.856Z,29.77
2019-04-10T04:04:21.632Z,33.10
2019-04-10T04:06:52.256Z,30.68
2019-04-10T04:09:21.802Z,23.47
2019-04-10T04:11:51.209Z,26.15
2019-04-10T04:14:20.671Z,34.53
2019-04-10T04:16:51.157Z,30.30
2019-04-10T04:19:22.024Z,22.73
2019-04-10T04:21:52.351Z,23.75
2019-04-10T04:24:25.523Z,22.27
2019-04-10T04:26:55.639Z,36.88
2019-04-10T04:29:25.065Z,24.30
2019-04-10T04:31:54.698Z,22.93
2019-04-10T04:34:25.024Z,31.50
2019-04-10T04:36:55.622Z,25.43
2019-04-10T04:39:28.131Z,24.87
2019-04-10T04:41:56.426Z,26.50
2019-04-10T04:44:26.961Z,25.72
2019-04-10T04:47:15.672Z,21.20
2019-04-10T04:49:45.227Z,28.10
2019-04-10T04:52:14.661Z,25.08
2019-04-10T04:54:44.063Z,22.10
2019-04-10T04:57:13.621Z,28.55
2019-04-10T04:59:43.025Z,26.57
2019-04-10T05:02:12.822Z,27.13
2019-04-10T05:04:42.257Z,28.62
2019-04-10T05:07:13.426Z,24.67
2019-04-10T05:09:43.870Z,26.15
2019-04-10T05:12:13.481Z,20.92
2019-04-10T05:14:43.978Z,20.62
2019-04-10T05:17:16.416Z,21.35
2019-04-10T05:19:44.939Z,19.25
2019-04-10T05:22:14.436Z,27.40
2019-04-10T05:24:44.645Z,17.82
2019-04-10T05:27:14.159Z,23.52
2019-04-10T05:29:43.586Z,20.20
2019-04-10T05:32:14.345Z,23.35
2019-04-10T05:34:44.732Z,19.95
2019-04-10T05:37:14.217Z,19.98
2019-04-10T05:39:50.303Z,21.35
2019-04-10T05:42:14.796Z,21.93
2019-04-10T05:44:44.403Z,20.12
2019-04-10T05:47:13.757Z,22.10
2019-04-10T05:49:43.190Z,18.90
2019-04-10T05:52:12.743Z,19.57
2019-04-10T05:54:42.213Z,19.45
2019-04-10T05:57:12.461Z,20.57
2019-04-10T05:59:41.989Z,20.15
2019-04-10T06:02:11.383Z,22.98
2019-04-10T06:04:41.650Z,15.98
2019-04-10T06:07:11.172Z,24.30
2019-04-10T06:09:51.978Z,14.53
2019-04-10T06:12:11.886Z,17.02
2019-04-10T06:14:42.067Z,24.20
2019-04-10T06:17:11.530Z,18.95
2019-04-10T06:19:40.962Z,19.15
2019-04-10T06:22:11.234Z,18.42
2019-04-10T06:24:41.025Z,18.73
2019-04-10T06:27:10.792Z,23.80
2019-04-10T06:29:41.303Z,12.23
2019-04-10T06:32:11.503Z,14.38
2019-04-10T06:34:40.956Z,15.18
2019-04-10T06:37:10.317Z,17.82
2019-04-10T06:39:41.986Z,14.45
2019-04-10T06:42:12.028Z,14.20
2019-04-10T06:44:41.822Z,13.40
2019-04-10T06:47:11.945Z,15.00
2019-04-10T06:49:41.758Z,42.62
2019-04-10T06:52:11.316Z,15.60
2019-04-10T06:54:42.257Z,16.30
2019-04-10T06:57:11.689Z,16.60
2019-04-10T06:59:42.000Z,13.80
2019-04-10T07:02:23.811Z,20.80
2019-04-10T07:04:52.428Z,23.73
2019-04-10T07:07:20.270Z,15.28
2019-04-10T07:09:48.304Z,15.80
2019-04-10T07:12:18.606Z,13.72
2019-04-10T07:14:50.698Z,13.48
2019-04-10T07:17:20.273Z,16.73
2019-04-10T07:19:49.697Z,12.25
2019-04-10T07:22:20.651Z,16.45
2019-04-10T07:24:51.840Z,15.70
2019-04-10T07:27:21.855Z,19.30
2019-04-10T07:29:56.554Z,12.55
2019-04-10T07:32:24.254Z,10.50
2019-04-10T07:34:59.139Z,14.90
2019-04-10T07:37:25.979Z,13.50
2019-04-10T07:39:59.699Z,21.05
2019-04-10T07:42:33.846Z,11.05
2019-04-10T07:44:58.366Z,13.15
2019-04-10T07:47:27.789Z,13.88
2019-04-10T07:49:59.505Z,17.45
2019-04-10T07:52:29.530Z,11.33
2019-04-10T07:54:59.040Z,10.25
2019-04-10T07:57:28.675Z,12.07
2019-04-10T07:59:58.789Z,13.00
2019-04-10T08:02:28.218Z,16.37
2019-04-10T08:04:57.989Z,13.98
2019-04-10T08:07:32.587Z,15.63
2019-04-10T08:09:59.283Z,8.43
2019-04-10T08:12:39.592Z,12.68
2019-04-10T08:15:00.687Z,19.73
2019-04-10T08:17:30.435Z,12.00
2019-04-10T08:19:59.921Z,11.08
2019-04-10T08:22:29.353Z,10.95
2019-04-10T08:25:00.077Z,18.60
2019-04-10T08:27:29.913Z,12.05
2019-04-10T08:29:59.412Z,10.68
2019-04-10T08:32:29.947Z,12.13
2019-04-10T08:35:00.354Z,15.03
2019-04-10T08:37:29.826Z,9.25
2019-04-10T08:39:59.592Z,10.28
2019-04-10T08:42:29.013Z,9.50
2019-04-10T08:45:05.755Z,10.15
2019-04-10T08:47:37.531Z,14.43
2019-04-10T08:55:21.901Z,12.58
2019-04-10T08:57:48.138Z,11.65
2019-04-10T09:00:20.570Z,10.88
2019-04-10T09:02:52.611Z,12.47
2019-04-10T09:05:23.731Z,14.28
2019-04-10T09:07:53.239Z,11.80
2019-04-10T09:10:22.717Z,13.30
2019-04-10T09:12:54.434Z,20.50
2019-04-10T09:15:23.548Z,12.07
2019-04-10T09:17:53.486Z,15.80
2019-04-10T09:20:23.017Z,13.45
2019-04-10T09:23:13.379Z,14.30
2019-04-10T09:25:24.922Z,23.90
2019-04-10T09:27:54.492Z,11.25
2019-04-10T09:30:24.750Z,16.37
2019-04-10T09:32:54.871Z,14.47
2019-04-10T09:35:24.735Z,20.85
2019-04-10T09:37:54.553Z,21.35
2019-04-10T09:40:43.161Z,16.17
2019-04-10T09:43:14.210Z,22.02
2019-04-10T09:45:43.859Z,20.27
2019-04-10T09:48:20.698Z,13.08
2019-04-10T09:50:50.292Z,19.00
2019-04-10T09:53:19.817Z,23.90
2019-04-10T09:55:49.243Z,30.27
2019-04-10T09:58:19.764Z,22.22
2019-04-10T10:00:49.702Z,22.42
2019-04-10T10:03:19.515Z,17.35
2019-04-10T10:05:49.352Z,21.20
2019-04-10T10:08:18.794Z,18.20
2019-04-10T10:10:49.161Z,20.23
2019-04-10T10:13:18.653Z,14.63
2019-04-10T10:15:48.076Z,16.60
2019-04-10T10:18:17.532Z,16.10
2019-04-10T10:20:48.179Z,18.50
2019-04-10T10:23:17.978Z,15.63
2019-04-10T10:25:47.797Z,24.50
2019-04-10T10:28:17.283Z,20.97
2019-04-10T10:30:47.393Z,14.47
2019-04-10T10:33:17.494Z,16.20
2019-04-10T10:35:47.440Z,17.52
2019-04-10T10:38:17.605Z,15.78
2019-04-10T10:41:06.766Z,16.57
2019-04-10T10:43:36.313Z,17.25
2019-04-10T10:52:40.419Z,14.63
2019-04-10T10:55:10.081Z,14.85
2019-04-10T10:57:39.712Z,11.30
2019-04-10T11:00:12.770Z,21.73
2019-04-10T11:02:41.487Z,12.03
2019-04-10T11:05:11.330Z,12.25
2019-04-10T11:07:40.793Z,15.13
2019-04-10T11:10:10.983Z,17.77
2019-04-10T11:12:40.420Z,14.70
2019-04-10T11:15:10.150Z,14.98
2019-04-10T11:17:47.061Z,15.55
2019-04-10T11:20:17.814Z,9.40
2019-04-10T11:22:47.481Z,15.63
2019-04-10T11:25:19.517Z,11.43
2019-04-10T11:27:50.207Z,11.75
2019-04-10T11:30:20.627Z,15.15
2019-04-10T11:32:50.708Z,16.48
2019-04-10T11:35:21.834Z,10.45
2019-04-10T11:37:53.671Z,16.50
2019-04-10T11:40:23.547Z,9.20
2019-04-10T11:42:54.222Z,9.50
2019-04-10T11:45:26.146Z,15.05
2019-04-10T11:47:56.535Z,8.70
2019-04-10T11:50:28.116Z,10.95
2019-04-10T11:53:00.348Z,12.85
2019-04-10T11:55:29.589Z,11.63
2019-04-10T11:58:00.026Z,19.52
2019-04-10T12:00:50.349Z,12.33
2019-04-10T12:03:15.230Z,9.25
2019-04-10T12:05:46.366Z,12.65
2019-04-10T12:08:41.699Z,9.75
2019-04-10T12:13:18.378Z,10.50
2019-04-10T12:15:48.821Z,14.20
2019-04-10T12:18:18.371Z,25.75
2019-04-10T12:20:47.903Z,12.10
2019-04-10T12:23:18.795Z,11.73
2019-04-10T12:25:49.341Z,14.30
2019-04-10T12:28:20.135Z,23.38
2019-04-10T12:30:51.210Z,10.65
2019-04-10T12:33:23.380Z,13.03
2019-04-10T12:35:54.097Z,10.85
2019-04-10T12:38:23.673Z,14.35
2019-04-10T12:40:53.151Z,11.22
2019-04-10T12:43:23.175Z,12.45
2019-04-10T12:45:52.745Z,11.80
2019-04-10T12:48:23.020Z,11.35
2019-04-10T12:50:53.054Z,13.35
2019-04-10T12:53:23.307Z,12.40
2019-04-10T12:55:53.599Z,13.68
2019-04-10T12:58:23.105Z,11.70
2019-04-10T13:00:52.621Z,15.38
2019-04-10T13:03:23.330Z,9.60
2019-04-10T13:05:53.621Z,12.55
2019-04-10T13:08:31.340Z,12.13
2019-04-10T13:10:54.597Z,12.07
2019-04-10T13:13:24.306Z,20.23
2019-04-10T13:15:54.143Z,15.55
2019-04-10T13:18:24.637Z,11.85
2019-04-10T13:20:54.145Z,16.60
2019-04-10T13:23:24.555Z,16.85
2019-04-10T13:25:59.153Z,10.25
2019-04-10T13:28:25.548Z,16.12
2019-04-10T13:30:56.586Z,10.58
2019-04-10T13:33:26.729Z,16.80
2019-04-10T13:35:57.519Z,12.78
2019-04-10T13:38:32.716Z,14.65
2019-04-10T13:40:58.502Z,11.57
2019-04-10T13:43:27.911Z,18.73
2019-04-10T13:45:58.421Z,10.93
2019-04-10T13:48:27.815Z,16.15
2019-04-10T13:50:57.245Z,12.18
2019-04-10T13:53:28.048Z,14.10
2019-04-10T13:55:57.597Z,12.28
2019-04-10T13:58:28.852Z,13.22
2019-04-10T14:00:58.780Z,18.40
2019-04-10T14:03:28.676Z,20.02
2019-04-10T14:05:58.088Z,12.43
2019-04-10T14:08:41.549Z,21.77
2019-04-10T14:11:00.463Z,19.95
2019-04-10T14:13:30.144Z,25.65
2019-04-10T14:16:00.638Z,17.90
2019-04-10T14:18:30.140Z,13.28
2019-04-10T14:20:59.649Z,20.95
2019-04-10T14:23:31.210Z,18.75
2019-04-10T14:26:41.915Z,16.80
2019-04-10T14:29:09.366Z,18.37
2019-04-10T14:31:42.648Z,19.07
2019-04-10T14:34:12.418Z,14.98
2019-04-10T14:36:42.309Z,14.87
2019-04-10T14:39:19.360Z,12.68
2019-04-10T14:41:47.044Z,16.20
2019-04-10T14:44:16.585Z,20.62
2019-04-10T14:46:46.445Z,15.10
2019-04-10T14:49:16.843Z,14.05
2019-04-10T14:51:46.392Z,15.55
2019-04-10T14:54:15.873Z,18.55
2019-04-10T14:56:46.367Z,15.70
2019-04-10T14:59:16.365Z,15.72
2019-04-10T15:01:46.567Z,13.58
2019-04-10T15:04:17.267Z,18.27
2019-04-10T15:06:47.873Z,16.62
2019-04-10T15:09:25.554Z,19.35
2019-04-10T15:11:55.888Z,17.02
2019-04-10T15:14:26.329Z,15.70
2019-04-10T15:17:01.882Z,19.42
2019-04-10T15:19:26.923Z,15.08
2019-04-10T15:21:56.766Z,17.52
2019-04-10T15:24:27.806Z,18.82
2019-04-10T15:26:57.397Z,16.60
2019-04-10T15:29:28.000Z,20.80
2019-04-10T15:31:57.844Z,15.38
2019-04-10T15:34:28.224Z,13.85
2019-04-10T15:36:58.474Z,15.88
2019-04-10T15:39:33.982Z,18.80
2019-04-10T15:41:59.524Z,22.70
2019-04-10T15:44:29.852Z,14.18
2019-04-10T15:47:10.579Z,18.52
2019-04-10T15:49:30.997Z,15.15
2019-04-10T15:52:01.500Z,20.37
2019-04-10T15:54:32.126Z,20.52
2019-04-10T15:57:02.645Z,25.45
2019-04-10T15:59:32.402Z,16.77
2019-04-10T16:02:02.097Z,19.95
2019-04-10T16:04:31.648Z,15.93
2019-04-10T16:07:02.101Z,18.90
2019-04-10T16:09:44.470Z,17.85
2019-04-10T16:12:11.457Z,18.20
2019-04-10T16:14:40.849Z,18.27
2019-04-10T16:17:32.119Z,21.10
2019-04-10T16:20:23.355Z,13.35
2019-04-10T16:23:28.903Z,17.20
2019-04-10T16:25:58.648Z,19.17
2019-04-10T16:28:29.267Z,16.70
2019-04-10T16:30:59.235Z,15.83
2019-04-10T16:33:29.446Z,20.60
2019-04-10T16:35:59.121Z,19.65
2019-04-10T16:38:29.260Z,21.17
2019-04-10T16:40:58.983Z,21.82
2019-04-10T16:43:29.152Z,20.57
2019-04-10T16:45:59.462Z,21.93
2019-04-10T16:48:29.010Z,23.30
2019-04-10T16:50:59.728Z,21.00
2019-04-10T16:53:32.246Z,19.85
2019-04-10T16:56:02.061Z,15.98
2019-04-10T16:58:31.990Z,19.52
2019-04-10T17:01:04.398Z,20.88
2019-04-10T17:03:33.939Z,15.88
2019-04-10T17:06:08.226Z,21.55
2019-04-10T17:08:38.851Z,30.20
2019-04-10T17:11:09.190Z,25.32
2019-04-10T17:13:40.435Z,17.55
2019-04-10T17:16:10.958Z,18.40
2019-04-10T17:18:41.355Z,22.32
2019-04-10T17:21:11.156Z,20.02
2019-04-10T17:23:40.719Z,15.90
2019-04-10T17:26:10.781Z,17.25
2019-04-10T17:28:40.699Z,20.68
2019-04-10T17:31:10.954Z,19.00
2019-04-10T17:33:41.896Z,17.55
2019-04-10T17:36:11.928Z,16.37
2019-04-10T17:38:42.501Z,20.45
2019-04-10T17:41:12.242Z,21.60
2019-04-10T17:43:41.749Z,21.12
2019-04-10T17:46:11.203Z,25.88
2019-04-10T17:48:42.074Z,25.25
2019-04-10T17:51:12.270Z,18.87
2019-04-10T17:53:42.059Z,20.25
2019-04-10T17:56:11.985Z,28.32
2019-04-10T17:58:42.094Z,21.23
2019-04-10T18:01:13.801Z,22.90
2019-04-10T18:03:51.632Z,20.48
2019-04-10T18:06:15.204Z,18.98
2019-04-10T18:08:45.227Z,15.38
2019-04-10T18:11:14.738Z,20.00
2019-04-10T18:13:44.955Z,16.93
2019-04-10T18:16:14.792Z,15.05
2019-04-10T18:18:45.454Z,30.95
2019-04-10T18:21:16.947Z,16.02
2019-04-10T18:23:47.406Z,18.87
2019-04-10T18:26:20.281Z,18.30
2019-04-10T18:28:49.779Z,18.00
2019-04-10T18:31:22.501Z,17.70
2019-04-10T18:33:51.128Z,19.05
2019-04-10T18:36:20.918Z,26.80
2019-04-10T18:38:51.497Z,19.52
2019-04-10T18:41:24.136Z,18.25
2019-04-10T18:43:53.993Z,21.82
2019-04-10T18:46:23.980Z,22.55
2019-04-10T18:48:54.731Z,20.85
2019-04-10T18:51:26.651Z,17.75
2019-04-10T18:53:57.905Z,19.23
2019-04-10T18:56:27.397Z,23.50
2019-04-10T18:59:18.474Z,21.07
2019-04-10T19:02:07.530Z,21.90
2019-04-10T19:04:47.434Z,18.80
2019-04-10T19:07:20.740Z,20.72
2019-04-10T19:09:54.634Z,18.57
2019-04-10T19:12:25.119Z,19.35
2019-04-10T19:14:58.347Z,24.50
2019-04-10T19:17:29.058Z,19.35
2019-04-10T19:20:01.961Z,28.15
2019-04-10T19:22:32.443Z,19.42
2019-04-10T19:25:04.542Z,21.00
2019-04-10T19:27:35.971Z,20.62
2019-04-10T19:30:08.093Z,23.27
2019-04-10T19:32:37.636Z,21.02
2019-04-10T19:35:10.837Z,20.15
2019-04-10T19:37:40.809Z,18.77
2019-04-10T19:40:11.257Z,16.42
2019-04-10T19:42:41.795Z,22.02
2019-04-10T19:45:13.369Z,20.43
2019-04-10T19:47:44.114Z,21.52
2019-04-10T19:50:15.569Z,17.62
2019-04-10T19:52:45.036Z,20.00
2019-04-10T19:57:50.380Z,17.55
2019-04-10T20:00:22.575Z,23.12
2019-04-10T20:02:52.121Z,21.42
2019-04-10T20:05:21.877Z,18.70
2019-04-10T20:07:51.735Z,27.13
2019-04-10T20:10:21.389Z,22.10
2019-04-10T20:12:50.989Z,23.12
2019-04-10T20:15:21.117Z,18.85
2019-04-10T20:17:50.571Z,20.75
2019-04-10T20:20:20.005Z,26.33
2019-04-10T20:22:50.119Z,29.27
2019-04-10T20:25:19.656Z,29.98
2019-04-10T20:27:50.114Z,31.25
2019-04-10T20:30:21.508Z,21.68
2019-04-10T20:32:50.964Z,19.37
2019-04-10T20:35:20.373Z,24.98
2019-04-10T20:37:49.823Z,24.15
2019-04-10T20:40:20.642Z,28.02
2019-04-10T20:42:50.831Z,20.85
2019-04-10T20:45:21.112Z,20.57
2019-04-10T20:47:51.845Z,28.07
2019-04-10T20:50:21.703Z,23.38
2019-04-10T20:52:51.544Z,37.38
2019-04-10T20:55:21.640Z,20.32
2019-04-10T20:57:52.095Z,22.30
2019-04-10T21:00:30.062Z,22.70
2019-04-10T21:03:00.665Z,22.98
2019-04-10T21:05:30.233Z,24.77
2019-04-10T21:07:59.892Z,20.48
2019-04-10T21:10:29.436Z,22.75
2019-04-10T21:12:59.683Z,23.77
2019-04-10T21:15:30.008Z,22.13
2019-04-10T21:17:59.487Z,18.42
2019-04-10T21:20:28.885Z,19.02
2019-04-10T21:22:58.454Z,20.15
2019-04-10T21:25:27.919Z,24.85
2019-04-10T21:27:57.809Z,25.65
2019-04-10T21:30:49.261Z,20.02
2019-04-10T21:33:52.710Z,19.35
2019-04-10T21:36:22.128Z,21.93
2019-04-10T21:38:52.523Z,31.00
2019-04-10T21:41:22.429Z,26.17
2019-04-10T21:43:52.298Z,24.95
2019-04-10T21:46:22.218Z,16.60
2019-04-10T21:48:51.725Z,20.95
2019-04-10T21:51:21.591Z,22.75
2019-04-10T21:53:51.021Z,21.12
2019-04-10T21:56:40.920Z,28.02
2019-04-10T21:59:11.105Z,19.20
2019-04-10T22:01:40.786Z,22.32
2019-04-10T22:04:10.352Z,22.10
2019-04-10T22:07:11.872Z,27.60
2019-04-10T22:10:01.455Z,26.10
2019-04-10T22:12:34.813Z,22.55
2019-04-10T22:15:04.459Z,20.80
2019-04-10T22:17:34.192Z,21.30
2019-04-10T22:20:04.001Z,23.42
2019-04-10T22:22:33.516Z,21.10
2019-04-10T22:25:03.640Z,19.57
2019-04-10T22:27:33.784Z,25.00
2019-04-10T22:30:03.490Z,23.77
2019-04-10T22:32:33.148Z,25.10
2019-04-10T22:35:03.346Z,23.18
2019-04-10T22:37:32.913Z,25.00
2019-04-10T22:40:02.329Z,21.50
2019-04-10T22:42:40.077Z,26.42
2019-04-10T22:45:02.809Z,23.98
2019-04-10T22:47:32.903Z,29.35
2019-04-10T22:50:03.409Z,23.67
2019-04-10T22:52:32.809Z,24.37
2019-04-10T22:55:02.281Z,25.40
2019-04-10T22:57:31.701Z,21.80
2019-04-10T23:00:01.145Z,25.60
2019-04-10T23:02:30.549Z,26.93
2019-04-10T23:04:59.980Z,24.47
2019-04-10T23:07:30.222Z,24.12
2019-04-10T23:10:00.353Z,23.70
2019-04-10T23:12:30.039Z,20.90
2019-04-10T23:14:59.540Z,23.52
2019-04-10T23:17:30.074Z,31.12
2019-04-10T23:20:00.636Z,25.10
2019-04-10T23:22:31.353Z,24.18
2019-04-10T23:25:01.668Z,26.30
2019-04-10T23:27:32.053Z,20.75
2019-04-10T23:30:02.494Z,32.98
2019-04-10T23:32:32.128Z,28.42
2019-04-10T23:35:01.467Z,32.53
2019-04-10T23:37:31.006Z,23.30
2019-04-10T23:40:00.767Z,25.92
2019-04-10T23:42:30.366Z,21.52
2019-04-10T23:44:59.751Z,25.95
2019-04-10T23:47:29.193Z,26.02
2019-04-10T23:49:59.619Z,24.98
2019-04-10T23:52:29.763Z,21.90
2019-04-10T23:54:59.680Z,27.52
2019-04-10T23:57:29.527Z,27.65
2019-04-10T23:59:59.287Z,25.02
